createdAt,value
2018-07-15T00:01:26.745Z,9.40
2018-07-15T00:03:54.345Z,8.77
2018-07-15T00:06:21.924Z,10.10
2018-07-15T00:08:49.454Z,10.60
2018-07-15T00:11:17.000Z,9.97
2018-07-15T00:13:44.531Z,9.40
2018-07-15T00:16:12.083Z,9.80
2018-07-15T00:18:39.640Z,9.60
2018-07-15T00:21:07.382Z,9.80
2018-07-15T00:23:35.026Z,11.13
2018-07-15T00:26:02.598Z,10.50
2018-07-15T00:28:30.153Z,10.73
2018-07-15T00:30:57.716Z,10.43
2018-07-15T00:33:25.253Z,10.83
2018-07-15T00:35:52.785Z,10.13
2018-07-15T00:38:20.314Z,11.67
2018-07-15T00:40:47.873Z,11.00
2018-07-15T00:43:15.413Z,10.43
2018-07-15T00:45:43.000Z,10.53
2018-07-15T00:48:10.549Z,11.47
2018-07-15T00:50:38.134Z,11.90
2018-07-15T00:53:05.728Z,10.93
2018-07-15T00:55:33.271Z,11.63
2018-07-15T00:58:00.838Z,11.20
2018-07-15T01:00:33.921Z,13.03
2018-07-15T01:03:01.746Z,10.73
2018-07-15T01:05:29.253Z,11.33
2018-07-15T01:07:56.856Z,11.53
2018-07-15T01:10:24.407Z,10.73
2018-07-15T01:12:51.965Z,10.60
2018-07-15T01:15:19.525Z,11.30
2018-07-15T01:17:47.053Z,12.43
2018-07-15T01:20:14.752Z,10.37
2018-07-15T01:22:42.278Z,11.40
2018-07-15T01:25:09.817Z,10.43
2018-07-15T01:27:37.436Z,11.93
2018-07-15T01:30:04.995Z,13.13
2018-07-15T01:32:32.763Z,13.00
2018-07-15T01:35:00.303Z,12.63
2018-07-15T01:37:27.865Z,12.43
2018-07-15T01:39:55.460Z,13.30
2018-07-15T01:42:23.009Z,12.17
2018-07-15T01:44:50.554Z,12.97
2018-07-15T01:47:18.078Z,11.50
2018-07-15T01:49:45.589Z,12.00
2018-07-15T01:52:13.154Z,10.83
2018-07-15T01:54:40.685Z,11.60
2018-07-15T01:57:08.245Z,11.67
2018-07-15T01:59:35.820Z,11.40
2018-07-15T02:02:03.406Z,11.17
2018-07-15T02:04:30.930Z,11.00
2018-07-15T02:06:58.491Z,11.60
2018-07-15T02:09:26.036Z,11.80
2018-07-15T02:11:53.653Z,11.90
2018-07-15T02:14:21.253Z,12.37
2018-07-15T02:16:48.813Z,11.90
2018-07-15T02:19:16.331Z,11.43
2018-07-15T02:21:43.797Z,12.40
2018-07-15T02:24:11.387Z,11.70
2018-07-15T02:26:38.876Z,12.57
2018-07-15T02:29:06.559Z,12.77
2018-07-15T02:31:35.047Z,12.77
2018-07-15T02:34:02.692Z,12.60
2018-07-15T02:36:30.224Z,12.50
2018-07-15T02:38:57.749Z,11.87
2018-07-15T02:41:25.304Z,13.00
2018-07-15T02:43:52.842Z,11.90
2018-07-15T02:46:20.376Z,13.67
2018-07-15T02:48:47.934Z,12.57
2018-07-15T02:51:15.482Z,13.10
2018-07-15T02:53:43.042Z,10.90
2018-07-15T02:56:10.573Z,12.23
2018-07-15T02:58:38.149Z,11.83
2018-07-15T03:01:05.708Z,11.50
2018-07-15T03:03:33.212Z,11.97
2018-07-15T03:06:00.738Z,12.90
2018-07-15T03:08:28.311Z,12.70
2018-07-15T03:10:55.820Z,11.83
2018-07-15T03:13:23.354Z,12.63
2018-07-15T03:15:50.900Z,11.67
2018-07-15T03:18:18.456Z,10.67
2018-07-15T03:20:46.020Z,11.90
2018-07-15T03:23:13.994Z,12.00
2018-07-15T03:25:41.651Z,11.30
2018-07-15T03:28:09.315Z,12.20
2018-07-15T03:30:36.933Z,11.90
2018-07-15T03:33:04.526Z,12.57
2018-07-15T03:35:32.067Z,12.00
2018-07-15T03:37:59.597Z,13.00
2018-07-15T03:40:27.130Z,12.10
2018-07-15T03:42:54.682Z,12.60
2018-07-15T03:45:22.241Z,13.20
2018-07-15T03:47:49.785Z,12.30
2018-07-15T03:50:17.311Z,12.53
2018-07-15T03:52:44.873Z,12.20
2018-07-15T03:55:12.410Z,13.07
2018-07-15T03:57:40.281Z,12.27
2018-07-15T04:00:07.957Z,11.50
2018-07-15T04:02:35.535Z,11.70
2018-07-15T04:05:03.169Z,11.40
2018-07-15T04:07:30.681Z,10.87
2018-07-15T04:09:58.518Z,12.10
2018-07-15T04:12:26.115Z,10.37
2018-07-15T04:14:53.649Z,12.80
2018-07-15T04:17:21.248Z,11.80
2018-07-15T04:19:48.799Z,12.00
2018-07-15T04:22:16.332Z,11.90
2018-07-15T04:24:43.891Z,11.73
2018-07-15T04:27:11.421Z,12.47
2018-07-15T04:29:38.978Z,11.77
2018-07-15T04:32:06.537Z,11.00
2018-07-15T04:34:34.087Z,12.17
2018-07-15T04:37:01.645Z,12.83
2018-07-15T04:39:29.220Z,12.50
2018-07-15T04:41:56.765Z,12.40
2018-07-15T04:44:24.362Z,11.73
2018-07-15T04:46:51.926Z,11.30
2018-07-15T04:49:19.454Z,11.63
2018-07-15T04:51:47.018Z,11.63
2018-07-15T04:54:14.618Z,11.53
2018-07-15T04:56:42.176Z,11.33
2018-07-15T04:59:09.750Z,12.13
2018-07-15T05:01:40.966Z,11.23
2018-07-15T05:04:08.564Z,13.07
2018-07-15T05:06:36.088Z,13.00
2018-07-15T05:09:04.654Z,12.50
2018-07-15T05:11:32.270Z,13.00
2018-07-15T05:13:59.812Z,12.27
2018-07-15T05:16:27.386Z,12.10
2018-07-15T05:18:54.889Z,12.60
2018-07-15T05:21:22.432Z,12.90
2018-07-15T05:23:49.958Z,12.53
2018-07-15T05:26:17.558Z,12.20
2018-07-15T05:28:45.082Z,12.33
2018-07-15T05:31:12.628Z,13.50
2018-07-15T05:33:40.158Z,12.40
2018-07-15T05:36:07.770Z,12.17
2018-07-15T05:38:35.291Z,13.40
2018-07-15T05:41:02.840Z,12.40
2018-07-15T05:43:30.370Z,13.07
2018-07-15T05:45:57.890Z,11.70
2018-07-15T05:48:25.499Z,13.13
2018-07-15T05:50:53.237Z,12.27
2018-07-15T05:53:20.845Z,12.03
2018-07-15T05:55:48.414Z,12.90
2018-07-15T05:58:15.956Z,12.43
2018-07-15T06:00:43.556Z,13.80
2018-07-15T06:03:11.071Z,11.53
2018-07-15T06:05:38.639Z,11.20
2018-07-15T06:08:06.175Z,13.07
2018-07-15T06:10:33.727Z,11.60
2018-07-15T06:13:01.285Z,12.50
2018-07-15T06:15:28.840Z,11.77
2018-07-15T06:17:56.397Z,12.90
2018-07-15T06:20:23.945Z,11.23
2018-07-15T06:22:51.881Z,13.20
2018-07-15T06:25:19.350Z,12.60
2018-07-15T06:27:46.907Z,11.33
2018-07-15T06:30:14.439Z,10.70
2018-07-15T06:32:42.004Z,12.27
2018-07-15T06:35:09.566Z,11.00
2018-07-15T06:37:37.121Z,11.60
2018-07-15T06:40:04.862Z,12.40
2018-07-15T06:42:32.437Z,10.60
2018-07-15T06:45:00.002Z,11.50
2018-07-15T06:47:27.550Z,11.27
2018-07-15T06:49:55.122Z,10.77
2018-07-15T06:52:22.744Z,11.10
2018-07-15T06:54:50.304Z,11.07
2018-07-15T06:57:17.853Z,10.73
2018-07-15T06:59:45.422Z,11.10
2018-07-15T07:02:12.972Z,10.20
2018-07-15T07:04:40.706Z,10.87
2018-07-15T07:07:08.270Z,10.90
2018-07-15T07:09:35.808Z,9.03
2018-07-15T07:12:03.423Z,8.83
2018-07-15T07:14:30.971Z,9.80
2018-07-15T07:16:58.537Z,10.50
2018-07-15T07:19:26.099Z,9.60
2018-07-15T07:21:53.916Z,9.67
2018-07-15T07:24:21.502Z,9.70
2018-07-15T07:26:49.054Z,10.40
2018-07-15T07:29:16.682Z,10.43
2018-07-15T07:31:44.260Z,8.67
2018-07-15T07:34:11.805Z,9.03
2018-07-15T07:36:39.374Z,10.00
2018-07-15T07:39:07.026Z,9.80
2018-07-15T07:41:34.772Z,9.87
2018-07-15T07:44:02.384Z,9.17
2018-07-15T07:46:29.916Z,9.60
2018-07-15T07:48:57.476Z,9.90
2018-07-15T07:51:25.086Z,8.30
2018-07-15T07:53:52.666Z,9.27
2018-07-15T07:56:20.250Z,9.50
2018-07-15T07:58:47.897Z,9.53
2018-07-15T08:01:15.500Z,8.87
2018-07-15T08:03:43.036Z,9.00
2018-07-15T08:06:10.600Z,8.17
2018-07-15T08:08:38.146Z,7.57
2018-07-15T08:11:05.774Z,7.90
2018-07-15T08:13:33.412Z,8.07
2018-07-15T08:16:00.969Z,7.07
2018-07-15T08:18:28.506Z,8.77
2018-07-15T08:20:56.095Z,7.80
2018-07-15T08:23:23.611Z,6.70
2018-07-15T08:25:51.273Z,7.50
2018-07-15T08:28:18.912Z,6.93
2018-07-15T08:30:57.696Z,7.90
2018-07-15T08:33:25.246Z,6.90
2018-07-15T08:35:52.813Z,6.37
2018-07-15T08:38:20.378Z,7.23
2018-07-15T08:40:48.011Z,6.40
2018-07-15T08:43:15.531Z,7.83
2018-07-15T08:45:43.063Z,6.10
2018-07-15T08:48:10.653Z,6.80
2018-07-15T08:50:38.233Z,6.70
2018-07-15T08:53:05.817Z,6.50
2018-07-15T08:55:33.367Z,6.80
2018-07-15T08:58:00.935Z,6.00
2018-07-15T09:00:28.495Z,7.17
2018-07-15T09:02:56.128Z,6.27
2018-07-15T09:05:23.680Z,6.27
2018-07-15T09:07:51.749Z,5.70
2018-07-15T09:10:19.479Z,7.10
2018-07-15T09:12:47.234Z,5.47
2018-07-15T09:15:14.794Z,6.67
2018-07-15T09:17:42.393Z,6.20
2018-07-15T09:20:09.973Z,5.60
2018-07-15T09:22:37.520Z,5.57
2018-07-15T09:25:05.120Z,5.67
2018-07-15T09:27:32.677Z,5.77
2018-07-15T09:30:00.300Z,6.90
2018-07-15T09:32:27.885Z,5.43
2018-07-15T09:34:55.443Z,6.23
2018-07-15T09:37:29.596Z,6.00
2018-07-15T09:39:57.138Z,6.43
2018-07-15T09:42:24.689Z,6.60
2018-07-15T09:44:52.240Z,6.60
2018-07-15T09:47:19.828Z,6.67
2018-07-15T09:49:47.337Z,5.83
2018-07-15T09:52:14.872Z,5.90
2018-07-15T09:54:42.426Z,6.00
2018-07-15T09:57:10.067Z,5.50
2018-07-15T09:59:37.758Z,5.30
2018-07-15T10:02:05.504Z,5.60
2018-07-15T10:04:33.283Z,5.60
2018-07-15T10:07:00.966Z,6.03
2018-07-15T10:09:28.941Z,5.33
2018-07-15T10:11:56.927Z,5.87
2018-07-15T10:14:24.671Z,5.50
2018-07-15T10:16:52.223Z,6.53
2018-07-15T10:19:19.793Z,6.43
2018-07-15T10:21:47.365Z,5.30
2018-07-15T10:24:14.913Z,6.30
2018-07-15T10:26:42.691Z,6.07
2018-07-15T10:29:10.166Z,5.20
2018-07-15T10:31:37.724Z,5.63
2018-07-15T10:34:05.308Z,5.70
2018-07-15T10:36:32.880Z,5.27
2018-07-15T10:39:00.444Z,5.30
2018-07-15T10:41:28.379Z,5.63
2018-07-15T10:43:55.919Z,6.10
2018-07-15T10:46:23.568Z,5.33
2018-07-15T10:48:51.120Z,5.13
2018-07-15T10:51:18.718Z,5.37
2018-07-15T10:53:46.466Z,4.80
2018-07-15T10:56:14.010Z,5.57
2018-07-15T10:58:41.557Z,4.77
2018-07-15T11:01:09.917Z,4.73
2018-07-15T11:03:37.370Z,5.63
2018-07-15T11:06:05.034Z,5.67
2018-07-15T11:08:32.622Z,5.97
2018-07-15T11:11:00.170Z,4.30
2018-07-15T11:13:27.832Z,5.20
2018-07-15T11:15:55.395Z,5.13
2018-07-15T11:18:23.330Z,4.47
2018-07-15T11:20:50.905Z,4.70
2018-07-15T11:23:18.509Z,5.03
2018-07-15T11:25:46.089Z,4.60
2018-07-15T11:28:13.587Z,5.07
2018-07-15T11:30:41.293Z,4.33
2018-07-15T11:33:09.472Z,4.70
2018-07-15T11:35:37.029Z,4.17
2018-07-15T11:38:04.575Z,4.60
2018-07-15T11:40:32.247Z,4.70
2018-07-15T11:42:59.825Z,3.83
2018-07-15T11:45:27.429Z,4.60
2018-07-15T11:47:54.976Z,4.80
2018-07-15T11:50:22.570Z,4.50
2018-07-15T11:52:50.154Z,4.60
2018-07-15T11:55:17.636Z,4.90
2018-07-15T11:57:46.910Z,4.30
2018-07-15T12:00:14.830Z,3.70
2018-07-15T12:02:42.561Z,6.00
2018-07-15T12:05:10.142Z,4.77
2018-07-15T12:07:37.811Z,4.60
2018-07-15T12:10:05.844Z,3.27
2018-07-15T12:12:33.442Z,4.40
2018-07-15T12:15:00.989Z,3.53
2018-07-15T12:17:28.560Z,4.10
2018-07-15T12:19:56.109Z,4.43
2018-07-15T12:22:23.683Z,4.30
2018-07-15T12:24:51.234Z,4.10
2018-07-15T12:27:18.832Z,3.80
2018-07-15T12:29:46.380Z,4.17
2018-07-15T12:32:13.971Z,4.30
2018-07-15T12:34:41.531Z,3.90
2018-07-15T12:37:09.091Z,3.90
2018-07-15T12:39:36.622Z,4.10
2018-07-15T12:42:04.185Z,4.30
2018-07-15T12:44:31.852Z,4.27
2018-07-15T12:46:59.412Z,4.60
2018-07-15T12:49:27.038Z,4.63
2018-07-15T12:51:54.715Z,3.90
2018-07-15T12:54:22.302Z,3.93
2018-07-15T12:56:49.791Z,4.97
2018-07-15T12:59:17.366Z,5.60
2018-07-15T13:01:44.906Z,4.73
2018-07-15T13:04:12.505Z,4.60
2018-07-15T13:06:40.168Z,4.20
2018-07-15T13:09:07.754Z,4.90
2018-07-15T13:11:35.464Z,5.13
2018-07-15T13:14:03.048Z,5.10
2018-07-15T13:16:30.733Z,4.57
2018-07-15T13:18:58.287Z,4.93
2018-07-15T13:21:25.860Z,5.10
2018-07-15T13:23:53.436Z,4.53
2018-07-15T13:26:21.018Z,4.60
2018-07-15T13:28:48.518Z,4.97
2018-07-15T13:31:16.170Z,5.43
2018-07-15T13:33:43.761Z,4.30
2018-07-15T13:36:11.357Z,4.30
2018-07-15T13:38:38.914Z,5.10
2018-07-15T13:41:06.539Z,4.80
2018-07-15T13:43:34.122Z,4.87
2018-07-15T13:46:01.737Z,4.80
2018-07-15T13:48:29.350Z,4.80
2018-07-15T13:50:56.977Z,4.67
2018-07-15T13:53:24.500Z,5.20
2018-07-15T13:55:52.105Z,4.83
2018-07-15T13:58:19.680Z,4.67
2018-07-15T14:00:47.206Z,4.23
2018-07-15T14:03:14.802Z,4.90
2018-07-15T14:05:42.358Z,5.17
2018-07-15T14:08:10.046Z,5.20
2018-07-15T14:10:37.679Z,5.00
2018-07-15T14:13:05.245Z,4.90
2018-07-15T14:15:32.808Z,5.67
2018-07-15T14:18:00.364Z,5.13
2018-07-15T14:20:27.953Z,6.40
2018-07-15T14:22:55.498Z,5.40
2018-07-15T14:25:23.111Z,6.07
2018-07-15T14:27:50.768Z,5.10
2018-07-15T14:30:18.302Z,5.00
2018-07-15T14:32:45.855Z,5.80
2018-07-15T14:35:13.415Z,5.13
2018-07-15T14:37:41.103Z,4.70
2018-07-15T14:40:08.676Z,4.67
2018-07-15T14:42:36.241Z,5.93
2018-07-15T14:45:04.056Z,4.83
2018-07-15T14:47:31.634Z,5.00
2018-07-15T14:49:59.200Z,4.33
2018-07-15T14:52:26.817Z,3.73
2018-07-15T14:54:54.369Z,3.77
2018-07-15T14:57:21.932Z,3.63
2018-07-15T14:59:49.457Z,5.63
2018-07-15T15:02:17.003Z,5.47
2018-07-15T15:04:44.628Z,6.07
2018-07-15T15:07:12.223Z,7.40
2018-07-15T15:09:39.725Z,7.00
2018-07-15T15:12:07.309Z,6.77
2018-07-15T15:14:34.928Z,6.47
2018-07-15T15:17:02.530Z,6.30
2018-07-15T15:19:30.126Z,8.57
2018-07-15T15:21:57.756Z,8.70
2018-07-15T15:24:25.363Z,8.00
2018-07-15T15:26:52.940Z,7.23
2018-07-15T15:29:20.526Z,7.77
2018-07-15T15:31:48.157Z,7.70
2018-07-15T15:34:15.717Z,7.83
2018-07-15T15:36:43.338Z,8.23
2018-07-15T15:39:10.884Z,8.50
2018-07-15T15:41:38.458Z,7.90
2018-07-15T15:44:05.950Z,8.20
2018-07-15T15:46:33.602Z,7.87
2018-07-15T15:49:01.111Z,8.03
2018-07-15T15:51:28.764Z,9.17
2018-07-15T15:53:56.351Z,9.30
2018-07-15T15:56:23.930Z,9.87
2018-07-15T15:58:51.574Z,10.77
2018-07-15T16:01:19.172Z,10.97
2018-07-15T16:03:46.742Z,13.07
2018-07-15T16:06:14.361Z,9.50
2018-07-15T16:08:41.929Z,8.40
2018-07-15T16:11:09.525Z,9.00
2018-07-15T16:13:37.082Z,10.23
2018-07-15T16:16:04.720Z,8.13
2018-07-15T16:18:32.384Z,7.47
2018-07-15T16:20:59.924Z,7.70
2018-07-15T16:23:27.535Z,8.80
2018-07-15T16:25:55.102Z,7.60
2018-07-15T16:28:22.723Z,8.17
2018-07-15T16:30:50.312Z,7.90
2018-07-15T16:33:17.922Z,8.20
2018-07-15T16:35:45.499Z,8.00
2018-07-15T16:38:13.111Z,8.53
2018-07-15T16:40:40.777Z,9.27
2018-07-15T16:43:08.382Z,9.17
2018-07-15T16:45:35.983Z,9.50
2018-07-15T16:48:03.581Z,8.80
2018-07-15T16:50:31.150Z,8.70
2018-07-15T16:52:58.769Z,9.37
2018-07-15T16:55:26.392Z,9.13
2018-07-15T16:57:54.042Z,10.10
2018-07-15T17:00:21.630Z,10.33
2018-07-15T17:02:49.333Z,9.73
2018-07-15T17:05:17.002Z,9.50
2018-07-15T17:07:44.598Z,8.43
2018-07-15T17:10:12.240Z,10.80
2018-07-15T17:12:39.890Z,11.10
2018-07-15T17:15:07.548Z,9.27
2018-07-15T17:17:35.194Z,7.90
2018-07-15T17:20:02.770Z,7.43
2018-07-15T17:22:30.349Z,6.87
2018-07-15T17:24:57.913Z,6.60
2018-07-15T17:27:25.512Z,6.97
2018-07-15T17:29:53.101Z,6.57
2018-07-15T17:32:20.818Z,6.40
2018-07-15T17:34:48.438Z,5.23
2018-07-15T17:37:16.101Z,5.90
2018-07-15T17:39:43.770Z,5.33
2018-07-15T17:42:11.488Z,5.60
2018-07-15T17:44:39.191Z,5.77
2018-07-15T17:47:06.874Z,5.57
2018-07-15T17:49:34.532Z,5.70
2018-07-15T17:52:02.877Z,5.50
2018-07-15T17:54:30.584Z,7.20
2018-07-15T17:56:58.337Z,6.17
2018-07-15T17:59:26.523Z,6.90
2018-07-15T18:01:54.220Z,6.47
2018-07-15T18:04:21.950Z,7.60
2018-07-15T18:06:50.140Z,8.03
2018-07-15T18:09:17.826Z,7.30
2018-07-15T18:11:45.479Z,7.17
2018-07-15T18:14:13.677Z,7.37
2018-07-15T18:16:41.361Z,6.97
2018-07-15T18:19:09.998Z,6.13
2018-07-15T18:21:37.703Z,7.23
2018-07-15T18:24:05.394Z,7.23
2018-07-15T18:26:32.969Z,5.67
2018-07-15T18:29:00.534Z,6.40
2018-07-15T18:31:28.083Z,6.40
2018-07-15T18:33:55.807Z,6.43
2018-07-15T18:36:23.524Z,5.63
2018-07-15T18:38:51.292Z,7.23
2018-07-15T18:41:19.037Z,6.00
2018-07-15T18:43:46.813Z,5.67
2018-07-15T18:46:14.543Z,5.50
2018-07-15T18:48:42.237Z,6.07
2018-07-15T18:51:10.035Z,6.23
2018-07-15T18:53:37.831Z,6.80
2018-07-15T18:56:05.644Z,6.30
2018-07-15T18:58:34.476Z,6.07
2018-07-15T19:01:02.154Z,6.63
2018-07-15T19:03:29.875Z,7.50
2018-07-15T19:05:58.277Z,8.80
2018-07-15T19:08:26.676Z,7.10
2018-07-15T19:10:55.235Z,4.77
2018-07-15T19:13:22.974Z,5.23
2018-07-15T19:15:50.808Z,5.17
2018-07-15T19:18:19.134Z,11.53
2018-07-15T19:20:46.932Z,14.13
2018-07-15T19:23:14.664Z,9.70
2018-07-15T19:25:42.405Z,22.33
2018-07-15T19:28:10.099Z,14.20
2018-07-15T19:30:37.918Z,9.00
2018-07-15T19:33:05.916Z,7.60
2018-07-15T19:35:33.591Z,7.07
2018-07-15T19:38:01.421Z,6.50
2018-07-15T19:40:29.161Z,7.00
2018-07-15T19:42:56.890Z,6.67
2018-07-15T19:45:24.611Z,7.47
2018-07-15T19:47:52.324Z,7.30
2018-07-15T19:50:20.051Z,6.20
2018-07-15T19:52:48.032Z,5.90
2018-07-15T19:55:16.280Z,6.00
2018-07-15T19:57:44.194Z,6.20
2018-07-15T20:00:11.922Z,6.73
2018-07-15T20:02:39.689Z,6.30
2018-07-15T20:05:07.716Z,6.60
2018-07-15T20:07:35.462Z,7.50
2018-07-15T20:10:03.984Z,6.40
2018-07-15T20:12:31.689Z,6.70
2018-07-15T20:14:59.403Z,6.73
2018-07-15T20:17:27.173Z,7.00
2018-07-15T20:19:54.912Z,6.40
2018-07-15T20:22:22.623Z,6.80
2018-07-15T20:24:50.222Z,6.10
2018-07-15T20:27:17.888Z,6.93
2018-07-15T20:29:45.494Z,7.07
2018-07-15T20:32:13.157Z,7.03
2018-07-15T20:34:40.976Z,5.83
2018-07-15T20:37:08.624Z,5.97
2018-07-15T20:39:36.268Z,6.80
2018-07-15T20:42:03.955Z,6.70
2018-07-15T20:44:31.616Z,7.30
2018-07-15T20:46:59.243Z,6.60
2018-07-15T20:49:26.851Z,6.90
2018-07-15T20:51:55.109Z,7.20
2018-07-15T20:54:22.739Z,6.83
2018-07-15T20:56:50.366Z,7.13
2018-07-15T20:59:17.897Z,6.10
2018-07-15T21:01:45.437Z,6.43
2018-07-15T21:04:12.996Z,7.03
2018-07-15T21:06:40.585Z,7.53
2018-07-15T21:09:08.159Z,6.73
2018-07-15T21:11:35.714Z,7.93
2018-07-15T21:14:03.245Z,7.43
2018-07-15T21:16:30.779Z,6.13
2018-07-15T21:18:58.501Z,7.30
2018-07-15T21:21:26.104Z,7.67
2018-07-15T21:23:53.618Z,7.00
2018-07-15T21:26:21.132Z,7.10
2018-07-15T21:28:48.637Z,6.57
2018-07-15T21:31:16.187Z,8.23
2018-07-15T21:33:43.777Z,6.90
2018-07-15T21:36:11.331Z,6.60
2018-07-15T21:38:38.904Z,6.73
2018-07-15T21:41:06.461Z,7.10
2018-07-15T21:43:34.051Z,7.60
2018-07-15T21:46:01.606Z,8.43
2018-07-15T21:48:29.190Z,7.97
2018-07-15T21:50:56.771Z,8.37
2018-07-15T21:53:24.445Z,8.00
2018-07-15T21:55:52.071Z,7.23
2018-07-15T21:58:19.568Z,8.67
2018-07-15T22:00:47.127Z,7.50
2018-07-15T22:03:14.724Z,8.70
2018-07-15T22:05:43.385Z,8.50
2018-07-15T22:08:22.207Z,8.93
2018-07-15T22:10:49.785Z,8.43
2018-07-15T22:13:17.386Z,8.30
2018-07-15T22:15:44.923Z,8.60
2018-07-15T22:18:12.473Z,8.87
2018-07-15T22:20:40.068Z,8.63
2018-07-15T22:23:08.257Z,9.03
2018-07-15T22:25:35.847Z,9.23
2018-07-15T22:28:03.537Z,8.37
2018-07-15T22:30:31.111Z,9.30
2018-07-15T22:32:58.698Z,9.47
2018-07-15T22:35:26.291Z,8.53
2018-07-15T22:37:53.879Z,9.80
2018-07-15T22:40:21.510Z,9.43
2018-07-15T22:42:49.111Z,8.63
2018-07-15T22:45:16.637Z,10.50
2018-07-15T22:47:44.233Z,9.80
2018-07-15T22:50:11.759Z,9.43
2018-07-15T22:52:39.364Z,10.73
2018-07-15T22:55:06.952Z,8.60
2018-07-15T22:57:34.502Z,10.40
2018-07-15T23:00:02.067Z,9.80
2018-07-15T23:02:29.655Z,9.83
2018-07-15T23:05:36.443Z,10.80
2018-07-15T23:08:04.657Z,9.80
2018-07-15T23:10:32.212Z,9.60
2018-07-15T23:12:59.986Z,9.83
2018-07-15T23:15:27.613Z,9.17
2018-07-15T23:17:55.205Z,9.40
2018-07-15T23:20:22.757Z,9.30
2018-07-15T23:22:50.476Z,9.50
2018-07-15T23:25:18.129Z,8.50
2018-07-15T23:27:45.672Z,10.03
2018-07-15T23:30:13.258Z,9.73
2018-07-15T23:32:40.815Z,9.33
2018-07-15T23:35:08.386Z,8.37
2018-07-15T23:37:36.035Z,9.60
2018-07-15T23:40:03.643Z,9.53
2018-07-15T23:42:31.166Z,10.10
2018-07-15T23:44:58.695Z,10.37
2018-07-15T23:47:26.240Z,10.23
2018-07-15T23:49:53.791Z,10.93
2018-07-15T23:52:21.360Z,10.10
2018-07-15T23:54:48.894Z,11.07
2018-07-15T23:57:16.404Z,9.63
2018-07-15T23:59:43.957Z,12.00
